sensor_id;sensor_type;location;lat;lon;timestamp;temperature;humidity
32600;DHT22;19277;51.778;7.912;2022-08-11T00:00:21;26.40;60.50
32600;DHT22;19277;51.778;7.912;2022-08-11T00:03:03;26.40;60.50
32600;DHT22;19277;51.778;7.912;2022-08-11T00:05:30;26.40;60.50
32600;DHT22;19277;51.778;7.912;2022-08-11T00:07:56;26.40;60.60
32600;DHT22;19277;51.778;7.912;2022-08-11T00:10:25;26.40;60.60
32600;DHT22;19277;51.778;7.912;2022-08-11T00:12:57;26.40;60.60
32600;DHT22;19277;51.778;7.912;2022-08-11T00:15:26;26.40;60.60
32600;DHT22;19277;51.778;7.912;2022-08-11T00:17:59;26.40;60.60
32600;DHT22;19277;51.778;7.912;2022-08-11T00:20:35;26.40;60.70
32600;DHT22;19277;51.778;7.912;2022-08-11T00:23:08;26.40;60.70
32600;DHT22;19277;51.778;7.912;2022-08-11T00:25:42;26.50;60.90
32600;DHT22;19277;51.778;7.912;2022-08-11T00:28:29;26.50;61.00
32600;DHT22;19277;51.778;7.912;2022-08-11T00:30:58;26.50;61.10
32600;DHT22;19277;51.778;7.912;2022-08-11T00:33:30;26.40;61.10
32600;DHT22;19277;51.778;7.912;2022-08-11T00:35:58;26.50;61.20
32600;DHT22;19277;51.778;7.912;2022-08-11T00:38:28;26.50;61.30
32600;DHT22;19277;51.778;7.912;2022-08-11T00:41:00;26.50;61.30
32600;DHT22;19277;51.778;7.912;2022-08-11T00:43:37;26.50;61.40
32600;DHT22;19277;51.778;7.912;2022-08-11T01:00:11;26.50;61.40
32600;DHT22;19277;51.778;7.912;2022-08-11T01:02:46;26.50;62.00
32600;DHT22;19277;51.778;7.912;2022-08-11T01:05:40;26.50;61.40
32600;DHT22;19277;51.778;7.912;2022-08-11T01:14:21;26.50;61.60
32600;DHT22;19277;51.778;7.912;2022-08-11T01:17:02;26.50;61.60
32600;DHT22;19277;51.778;7.912;2022-08-11T01:28:25;26.60;62.00
32600;DHT22;19277;51.778;7.912;2022-08-11T01:48:40;26.60;61.90
32600;DHT22;19277;51.778;7.912;2022-08-11T01:54:45;26.60;61.80
32600;DHT22;19277;51.778;7.912;2022-08-11T01:57:33;26.60;61.80
32600;DHT22;19277;51.778;7.912;2022-08-11T02:00:10;26.60;61.80
32600;DHT22;19277;51.778;7.912;2022-08-11T02:05:57;26.60;61.70
32600;DHT22;19277;51.778;7.912;2022-08-11T02:08:45;26.60;61.70
32600;DHT22;19277;51.778;7.912;2022-08-11T02:11:27;26.60;61.60
32600;DHT22;19277;51.778;7.912;2022-08-11T02:14:02;26.60;61.60
32600;DHT22;19277;51.778;7.912;2022-08-11T02:29:02;26.60;61.80
32600;DHT22;19277;51.778;7.912;2022-08-11T02:53:48;26.70;62.60
32600;DHT22;19277;51.778;7.912;2022-08-11T02:56:45;26.70;62.60
32600;DHT22;19277;51.778;7.912;2022-08-11T03:13:15;26.70;62.70
32600;DHT22;19277;51.778;7.912;2022-08-11T03:16:31;26.70;62.80
32600;DHT22;19277;51.778;7.912;2022-08-11T03:27:49;26.70;62.90
32600;DHT22;19277;51.778;7.912;2022-08-11T03:39:49;26.70;63.10
32600;DHT22;19277;51.778;7.912;2022-08-11T03:47:59;26.70;63.20
32600;DHT22;19277;51.778;7.912;2022-08-11T03:51:05;26.70;63.40
32600;DHT22;19277;51.778;7.912;2022-08-11T04:05:20;26.70;63.50
32600;DHT22;19277;51.778;7.912;2022-08-11T04:08:25;26.70;63.70
32600;DHT22;19277;51.778;7.912;2022-08-11T04:17:20;26.70;63.70
32600;DHT22;19277;51.778;7.912;2022-08-11T04:28:54;26.70;63.50
32600;DHT22;19277;51.778;7.912;2022-08-11T04:34:35;26.70;63.50
32600;DHT22;19277;51.778;7.912;2022-08-11T04:48:42;26.80;63.50
32600;DHT22;19277;51.778;7.912;2022-08-11T05:05:14;26.90;63.50
32600;DHT22;19277;51.778;7.912;2022-08-11T05:10:58;26.90;64.00
32600;DHT22;19277;51.778;7.912;2022-08-11T05:16:23;26.90;63.80
32600;DHT22;19277;51.778;7.912;2022-08-11T05:19:18;26.90;63.60
32600;DHT22;19277;51.778;7.912;2022-08-11T05:22:07;26.90;63.50
32600;DHT22;19277;51.778;7.912;2022-08-11T05:25:08;26.90;63.50
32600;DHT22;19277;51.778;7.912;2022-08-11T05:28:07;26.90;63.30
32600;DHT22;19277;51.778;7.912;2022-08-11T05:31:00;26.90;63.30
32600;DHT22;19277;51.778;7.912;2022-08-11T05:33:51;26.90;63.20
32600;DHT22;19277;51.778;7.912;2022-08-11T05:36:46;26.90;63.10
32600;DHT22;19277;51.778;7.912;2022-08-11T05:39:20;26.90;63.00
32600;DHT22;19277;51.778;7.912;2022-08-11T05:42:06;26.90;63.00
32600;DHT22;19277;51.778;7.912;2022-08-11T05:44:53;26.90;62.90
32600;DHT22;19277;51.778;7.912;2022-08-11T05:47:38;26.90;62.80
32600;DHT22;19277;51.778;7.912;2022-08-11T05:50:24;26.90;62.80
32600;DHT22;19277;51.778;7.912;2022-08-11T05:53:13;26.90;62.70
32600;DHT22;19277;51.778;7.912;2022-08-11T05:55:58;26.90;62.60
32600;DHT22;19277;51.778;7.912;2022-08-11T05:58:55;26.90;62.60
32600;DHT22;19277;51.778;7.912;2022-08-11T06:01:27;26.90;62.50
32600;DHT22;19277;51.778;7.912;2022-08-11T06:03:56;26.90;62.40
32600;DHT22;19277;51.778;7.912;2022-08-11T06:07:02;26.90;62.40
32600;DHT22;19277;51.778;7.912;2022-08-11T06:09:34;26.90;62.40
32600;DHT22;19277;51.778;7.912;2022-08-11T06:12:03;26.90;58.50
32600;DHT22;19277;51.778;7.912;2022-08-11T06:14:30;26.80;58.00
32600;DHT22;19277;51.778;7.912;2022-08-11T06:16:58;26.70;58.40
32600;DHT22;19277;51.778;7.912;2022-08-11T06:19:37;26.70;58.90
32600;DHT22;19277;51.778;7.912;2022-08-11T06:22:05;26.60;59.20
32600;DHT22;19277;51.778;7.912;2022-08-11T06:24:34;26.70;59.60
32600;DHT22;19277;51.778;7.912;2022-08-11T06:27:00;26.70;59.70
32600;DHT22;19277;51.778;7.912;2022-08-11T06:29:27;26.70;59.90
32600;DHT22;19277;51.778;7.912;2022-08-11T06:31:59;26.70;60.00
32600;DHT22;19277;51.778;7.912;2022-08-11T06:34:39;26.70;60.00
32600;DHT22;19277;51.778;7.912;2022-08-11T06:37:21;26.70;60.10
32600;DHT22;19277;51.778;7.912;2022-08-11T06:47:53;26.80;60.40
32600;DHT22;19277;51.778;7.912;2022-08-11T06:50:21;26.80;60.40
32600;DHT22;19277;51.778;7.912;2022-08-11T06:53:07;26.80;60.40
32600;DHT22;19277;51.778;7.912;2022-08-11T06:55:35;26.80;60.40
32600;DHT22;19277;51.778;7.912;2022-08-11T06:58:21;26.80;60.40
32600;DHT22;19277;51.778;7.912;2022-08-11T07:01:12;26.80;60.50
32600;DHT22;19277;51.778;7.912;2022-08-11T07:03:52;26.80;60.50
32600;DHT22;19277;51.778;7.912;2022-08-11T07:06:38;26.80;60.50
32600;DHT22;19277;51.778;7.912;2022-08-11T07:15:01;26.80;60.50
32600;DHT22;19277;51.778;7.912;2022-08-11T07:17:50;26.80;60.50
32600;DHT22;19277;51.778;7.912;2022-08-11T07:20:38;26.70;60.50
32600;DHT22;19277;51.778;7.912;2022-08-11T07:23:23;26.80;60.50
32600;DHT22;19277;51.778;7.912;2022-08-11T07:26:08;26.80;60.50
32600;DHT22;19277;51.778;7.912;2022-08-11T07:28:54;26.80;60.50
32600;DHT22;19277;51.778;7.912;2022-08-11T07:31:45;26.80;60.50
32600;DHT22;19277;51.778;7.912;2022-08-11T07:34:34;26.80;60.50
32600;DHT22;19277;51.778;7.912;2022-08-11T07:37:09;26.80;60.60
32600;DHT22;19277;51.778;7.912;2022-08-11T07:39:38;26.80;60.60
32600;DHT22;19277;51.778;7.912;2022-08-11T07:42:07;26.80;60.60
32600;DHT22;19277;51.778;7.912;2022-08-11T07:44:34;26.80;60.60
32600;DHT22;19277;51.778;7.912;2022-08-11T07:47:24;26.80;60.60
32600;DHT22;19277;51.778;7.912;2022-08-11T07:50:10;26.80;60.60
32600;DHT22;19277;51.778;7.912;2022-08-11T07:52:57;26.80;60.50
32600;DHT22;19277;51.778;7.912;2022-08-11T07:55:24;26.80;60.50
32600;DHT22;19277;51.778;7.912;2022-08-11T07:57:51;26.80;60.60
32600;DHT22;19277;51.778;7.912;2022-08-11T08:00:38;26.80;60.60
32600;DHT22;19277;51.778;7.912;2022-08-11T08:03:23;26.80;60.60
32600;DHT22;19277;51.778;7.912;2022-08-11T08:06:08;26.80;60.50
32600;DHT22;19277;51.778;7.912;2022-08-11T08:08:54;26.80;60.60
32600;DHT22;19277;51.778;7.912;2022-08-11T08:11:38;26.80;60.60
32600;DHT22;19277;51.778;7.912;2022-08-11T08:14:24;26.70;60.50
32600;DHT22;19277;51.778;7.912;2022-08-11T08:17:08;26.80;60.60
32600;DHT22;19277;51.778;7.912;2022-08-11T08:19:54;26.80;60.60
32600;DHT22;19277;51.778;7.912;2022-08-11T08:22:20;26.80;60.50
32600;DHT22;19277;51.778;7.912;2022-08-11T08:24:47;26.80;60.50
32600;DHT22;19277;51.778;7.912;2022-08-11T08:27:13;26.80;60.50
32600;DHT22;19277;51.778;7.912;2022-08-11T08:29:40;26.80;60.50
32600;DHT22;19277;51.778;7.912;2022-08-11T08:32:26;26.80;60.50
32600;DHT22;19277;51.778;7.912;2022-08-11T08:34:54;26.80;60.50
32600;DHT22;19277;51.778;7.912;2022-08-11T08:37:24;26.80;60.50
32600;DHT22;19277;51.778;7.912;2022-08-11T08:39:51;26.80;60.50
32600;DHT22;19277;51.778;7.912;2022-08-11T08:42:23;26.80;60.50
32600;DHT22;19277;51.778;7.912;2022-08-11T08:45:09;26.80;60.50
32600;DHT22;19277;51.778;7.912;2022-08-11T08:47:38;26.80;60.50
32600;DHT22;19277;51.778;7.912;2022-08-11T08:50:09;26.80;60.50
32600;DHT22;19277;51.778;7.912;2022-08-11T08:52:43;26.80;60.50
32600;DHT22;19277;51.778;7.912;2022-08-11T08:55:14;26.80;60.50
32600;DHT22;19277;51.778;7.912;2022-08-11T08:57:42;26.80;60.50
32600;DHT22;19277;51.778;7.912;2022-08-11T09:00:09;26.80;60.50
32600;DHT22;19277;51.778;7.912;2022-08-11T09:02:36;26.90;60.60
32600;DHT22;19277;51.778;7.912;2022-08-11T09:05:03;26.80;60.50
32600;DHT22;19277;51.778;7.912;2022-08-11T09:07:30;26.90;60.60
32600;DHT22;19277;51.778;7.912;2022-08-11T09:09:57;26.90;60.60
32600;DHT22;19277;51.778;7.912;2022-08-11T09:12:28;26.90;60.60
32600;DHT22;19277;51.778;7.912;2022-08-11T09:14:56;26.90;60.60
32600;DHT22;19277;51.778;7.912;2022-08-11T09:17:46;26.90;60.60
32600;DHT22;19277;51.778;7.912;2022-08-11T09:20:21;26.90;60.60
32600;DHT22;19277;51.778;7.912;2022-08-11T09:22:50;26.90;60.70
32600;DHT22;19277;51.778;7.912;2022-08-11T09:25:35;26.90;60.60
32600;DHT22;19277;51.778;7.912;2022-08-11T09:28:20;26.90;60.60
32600;DHT22;19277;51.778;7.912;2022-08-11T09:30:51;26.90;60.60
32600;DHT22;19277;51.778;7.912;2022-08-11T09:33:22;26.90;60.60
32600;DHT22;19277;51.778;7.912;2022-08-11T09:35:51;26.90;60.70
32600;DHT22;19277;51.778;7.912;2022-08-11T09:38:19;26.90;60.70
32600;DHT22;19277;51.778;7.912;2022-08-11T09:41:07;26.90;60.60
32600;DHT22;19277;51.778;7.912;2022-08-11T09:43:38;26.90;60.60
32600;DHT22;19277;51.778;7.912;2022-08-11T09:46:27;26.90;60.60
32600;DHT22;19277;51.778;7.912;2022-08-11T09:48:57;26.90;60.60
32600;DHT22;19277;51.778;7.912;2022-08-11T09:51:24;26.90;60.60
32600;DHT22;19277;51.778;7.912;2022-08-11T09:53:50;26.90;60.60
32600;DHT22;19277;51.778;7.912;2022-08-11T09:56:19;26.90;60.60
32600;DHT22;19277;51.778;7.912;2022-08-11T09:59:05;26.90;60.70
32600;DHT22;19277;51.778;7.912;2022-08-11T10:01:34;26.90;60.70
32600;DHT22;19277;51.778;7.912;2022-08-11T10:04:11;26.90;60.70
32600;DHT22;19277;51.778;7.912;2022-08-11T10:06:41;26.90;60.70
32600;DHT22;19277;51.778;7.912;2022-08-11T10:09:26;26.90;60.70
32600;DHT22;19277;51.778;7.912;2022-08-11T10:11:56;26.90;60.70
32600;DHT22;19277;51.778;7.912;2022-08-11T10:14:22;26.90;60.70
32600;DHT22;19277;51.778;7.912;2022-08-11T10:17:08;26.90;60.70
32600;DHT22;19277;51.778;7.912;2022-08-11T10:19:36;26.90;60.70
32600;DHT22;19277;51.778;7.912;2022-08-11T10:22:04;26.90;60.70
32600;DHT22;19277;51.778;7.912;2022-08-11T10:24:50;26.90;60.70
32600;DHT22;19277;51.778;7.912;2022-08-11T10:27:36;26.90;60.70
32600;DHT22;19277;51.778;7.912;2022-08-11T10:30:03;26.90;60.70
32600;DHT22;19277;51.778;7.912;2022-08-11T10:32:49;26.90;60.70
32600;DHT22;19277;51.778;7.912;2022-08-11T10:35:34;26.90;60.70
32600;DHT22;19277;51.778;7.912;2022-08-11T10:38:00;26.90;60.70
32600;DHT22;19277;51.778;7.912;2022-08-11T10:40:26;27.00;60.80
32600;DHT22;19277;51.778;7.912;2022-08-11T10:43:02;26.90;60.80
32600;DHT22;19277;51.778;7.912;2022-08-11T10:45:36;26.90;60.80
32600;DHT22;19277;51.778;7.912;2022-08-11T10:48:24;27.00;60.90
32600;DHT22;19277;51.778;7.912;2022-08-11T10:50:50;27.00;60.90
32600;DHT22;19277;51.778;7.912;2022-08-11T10:53:38;27.00;60.90
32600;DHT22;19277;51.778;7.912;2022-08-11T10:56:23;27.00;60.80
32600;DHT22;19277;51.778;7.912;2022-08-11T10:59:08;27.00;60.80
32600;DHT22;19277;51.778;7.912;2022-08-11T11:01:37;27.00;60.70
32600;DHT22;19277;51.778;7.912;2022-08-11T11:04:06;27.00;60.70
32600;DHT22;19277;51.778;7.912;2022-08-11T11:07:09;27.00;60.70
32600;DHT22;19277;51.778;7.912;2022-08-11T11:09:48;27.00;60.80
32600;DHT22;19277;51.778;7.912;2022-08-11T11:12:32;27.00;60.70
32600;DHT22;19277;51.778;7.912;2022-08-11T11:15:19;27.00;60.70
32600;DHT22;19277;51.778;7.912;2022-08-11T11:18:08;27.00;60.70
32600;DHT22;19277;51.778;7.912;2022-08-11T11:20:42;27.00;60.70
32600;DHT22;19277;51.778;7.912;2022-08-11T11:34:39;27.00;60.50
32600;DHT22;19277;51.778;7.912;2022-08-11T11:37:07;27.00;60.40
32600;DHT22;19277;51.778;7.912;2022-08-11T11:39:34;27.00;60.40
32600;DHT22;19277;51.778;7.912;2022-08-11T11:42:04;27.00;60.40
32600;DHT22;19277;51.778;7.912;2022-08-11T11:44:31;27.00;60.30
32600;DHT22;19277;51.778;7.912;2022-08-11T11:46:58;27.00;60.30
32600;DHT22;19277;51.778;7.912;2022-08-11T11:49:27;27.00;60.40
32600;DHT22;19277;51.778;7.912;2022-08-11T11:51:55;27.00;60.30
32600;DHT22;19277;51.778;7.912;2022-08-11T11:54:30;27.00;60.40
32600;DHT22;19277;51.778;7.912;2022-08-11T11:56:59;27.10;60.40
32600;DHT22;19277;51.778;7.912;2022-08-11T11:59:45;27.10;60.50
32600;DHT22;19277;51.778;7.912;2022-08-11T12:02:31;27.10;60.40
32600;DHT22;19277;51.778;7.912;2022-08-11T12:04:57;27.10;60.50
32600;DHT22;19277;51.778;7.912;2022-08-11T12:07:23;27.10;60.50
32600;DHT22;19277;51.778;7.912;2022-08-11T12:10:08;27.10;60.50
32600;DHT22;19277;51.778;7.912;2022-08-11T12:12:34;27.10;60.50
32600;DHT22;19277;51.778;7.912;2022-08-11T12:15:18;27.10;60.50
32600;DHT22;19277;51.778;7.912;2022-08-11T12:17:45;27.10;60.50
32600;DHT22;19277;51.778;7.912;2022-08-11T12:20:12;27.10;60.50
32600;DHT22;19277;51.778;7.912;2022-08-11T12:22:41;27.10;60.50
32600;DHT22;19277;51.778;7.912;2022-08-11T12:25:25;27.10;61.10
32600;DHT22;19277;51.778;7.912;2022-08-11T12:28:09;27.10;60.60
32600;DHT22;19277;51.778;7.912;2022-08-11T12:30:35;27.10;60.60
32600;DHT22;19277;51.778;7.912;2022-08-11T12:33:06;27.10;60.60
32600;DHT22;19277;51.778;7.912;2022-08-11T12:35:32;27.10;60.60
32600;DHT22;19277;51.778;7.912;2022-08-11T12:37:59;27.10;60.60
32600;DHT22;19277;51.778;7.912;2022-08-11T12:40:27;27.10;60.60
32600;DHT22;19277;51.778;7.912;2022-08-11T12:43:17;27.10;60.60
32600;DHT22;19277;51.778;7.912;2022-08-11T12:46:05;27.10;60.60
32600;DHT22;19277;51.778;7.912;2022-08-11T12:48:33;27.10;60.60
32600;DHT22;19277;51.778;7.912;2022-08-11T12:51:25;27.10;60.70
32600;DHT22;19277;51.778;7.912;2022-08-11T12:57:49;27.20;60.70
32600;DHT22;19277;51.778;7.912;2022-08-11T13:00:27;27.20;60.70
32600;DHT22;19277;51.778;7.912;2022-08-11T13:03:13;27.20;60.70
32600;DHT22;19277;51.778;7.912;2022-08-11T13:06:00;27.20;60.70
32600;DHT22;19277;51.778;7.912;2022-08-11T13:08:28;27.20;60.80
32600;DHT22;19277;51.778;7.912;2022-08-11T13:10:57;27.20;60.70
32600;DHT22;19277;51.778;7.912;2022-08-11T13:13:45;27.20;60.70
32600;DHT22;19277;51.778;7.912;2022-08-11T13:16:12;27.20;60.70
32600;DHT22;19277;51.778;7.912;2022-08-11T13:18:39;27.20;60.80
32600;DHT22;19277;51.778;7.912;2022-08-11T13:21:08;27.20;60.80
32600;DHT22;19277;51.778;7.912;2022-08-11T13:23:35;27.20;60.80
32600;DHT22;19277;51.778;7.912;2022-08-11T13:26:02;27.20;60.80
32600;DHT22;19277;51.778;7.912;2022-08-11T13:28:28;27.20;60.80
32600;DHT22;19277;51.778;7.912;2022-08-11T13:30:54;27.20;60.80
32600;DHT22;19277;51.778;7.912;2022-08-11T13:33:41;27.20;60.90
32600;DHT22;19277;51.778;7.912;2022-08-11T13:36:08;27.20;60.80
32600;DHT22;19277;51.778;7.912;2022-08-11T13:38:35;27.20;60.80
32600;DHT22;19277;51.778;7.912;2022-08-11T13:41:02;27.20;60.80
32600;DHT22;19277;51.778;7.912;2022-08-11T13:43:49;27.20;60.80
32600;DHT22;19277;51.778;7.912;2022-08-11T13:46:15;27.20;60.80
32600;DHT22;19277;51.778;7.912;2022-08-11T13:48:45;27.20;60.60
32600;DHT22;19277;51.778;7.912;2022-08-11T13:51:12;27.20;60.70
32600;DHT22;19277;51.778;7.912;2022-08-11T13:54:05;27.30;60.70
32600;DHT22;19277;51.778;7.912;2022-08-11T13:56:32;27.20;60.70
32600;DHT22;19277;51.778;7.912;2022-08-11T13:59:01;27.30;60.80
32600;DHT22;19277;51.778;7.912;2022-08-11T14:01:31;27.30;60.90
32600;DHT22;19277;51.778;7.912;2022-08-11T14:04:04;27.30;60.90
32600;DHT22;19277;51.778;7.912;2022-08-11T14:06:32;27.30;60.90
32600;DHT22;19277;51.778;7.912;2022-08-11T14:09:00;27.30;60.80
32600;DHT22;19277;51.778;7.912;2022-08-11T14:11:28;27.30;60.90
32600;DHT22;19277;51.778;7.912;2022-08-11T14:14:31;27.30;60.90
32600;DHT22;19277;51.778;7.912;2022-08-11T14:17:03;27.30;60.80
32600;DHT22;19277;51.778;7.912;2022-08-11T14:19:31;27.30;60.60
32600;DHT22;19277;51.778;7.912;2022-08-11T14:22:00;27.30;61.20
32600;DHT22;19277;51.778;7.912;2022-08-11T14:24:39;27.30;60.70
32600;DHT22;19277;51.778;7.912;2022-08-11T14:27:10;27.30;60.60
32600;DHT22;19277;51.778;7.912;2022-08-11T14:29:38;27.30;60.70
32600;DHT22;19277;51.778;7.912;2022-08-11T14:32:07;27.30;60.70
32600;DHT22;19277;51.778;7.912;2022-08-11T14:34:34;27.30;60.70
32600;DHT22;19277;51.778;7.912;2022-08-11T14:37:07;27.30;60.50
32600;DHT22;19277;51.778;7.912;2022-08-11T14:42:19;27.30;60.50
32600;DHT22;19277;51.778;7.912;2022-08-11T14:45:06;27.30;60.40
32600;DHT22;19277;51.778;7.912;2022-08-11T14:47:53;27.30;60.40
32600;DHT22;19277;51.778;7.912;2022-08-11T14:50:26;27.40;60.50
32600;DHT22;19277;51.778;7.912;2022-08-11T14:53:06;27.30;60.40
32600;DHT22;19277;51.778;7.912;2022-08-11T14:55:38;27.30;60.50
32600;DHT22;19277;51.778;7.912;2022-08-11T14:58:26;27.30;60.60
32600;DHT22;19277;51.778;7.912;2022-08-11T15:00:57;27.30;60.70
32600;DHT22;19277;51.778;7.912;2022-08-11T15:03:26;27.40;60.80
32600;DHT22;19277;51.778;7.912;2022-08-11T15:05:57;27.40;60.90
32600;DHT22;19277;51.778;7.912;2022-08-11T15:08:29;27.40;60.90
32600;DHT22;19277;51.778;7.912;2022-08-11T15:11:16;27.40;61.00
32600;DHT22;19277;51.778;7.912;2022-08-11T15:14:02;27.40;61.00
32600;DHT22;19277;51.778;7.912;2022-08-11T15:16:29;27.40;61.00
32600;DHT22;19277;51.778;7.912;2022-08-11T15:19:14;27.40;60.90
32600;DHT22;19277;51.778;7.912;2022-08-11T15:21:40;27.40;60.90
32600;DHT22;19277;51.778;7.912;2022-08-11T15:24:26;27.40;60.90
32600;DHT22;19277;51.778;7.912;2022-08-11T15:26:52;27.40;61.00
32600;DHT22;19277;51.778;7.912;2022-08-11T15:29:40;27.40;60.90
32600;DHT22;19277;51.778;7.912;2022-08-11T15:32:25;27.40;60.70
32600;DHT22;19277;51.778;7.912;2022-08-11T15:35:10;27.40;60.90
32600;DHT22;19277;51.778;7.912;2022-08-11T15:37:57;27.40;61.00
32600;DHT22;19277;51.778;7.912;2022-08-11T15:40:31;27.50;61.20
32600;DHT22;19277;51.778;7.912;2022-08-11T15:43:22;27.40;61.40
32600;DHT22;19277;51.778;7.912;2022-08-11T15:46:16;27.60;62.90
32600;DHT22;19277;51.778;7.912;2022-08-11T15:48:50;27.90;62.40
32600;DHT22;19277;51.778;7.912;2022-08-11T15:51:39;28.20;62.00
32600;DHT22;19277;51.778;7.912;2022-08-11T15:54:09;28.50;61.60
32600;DHT22;19277;51.778;7.912;2022-08-11T15:56:43;28.70;61.10
32600;DHT22;19277;51.778;7.912;2022-08-11T15:59:10;28.80;60.90
32600;DHT22;19277;51.778;7.912;2022-08-11T16:01:56;29.00;60.80
32600;DHT22;19277;51.778;7.912;2022-08-11T16:04:55;29.10;60.60
32600;DHT22;19277;51.778;7.912;2022-08-11T16:07:26;29.20;60.60
32600;DHT22;19277;51.778;7.912;2022-08-11T16:10:01;29.30;60.70
32600;DHT22;19277;51.778;7.912;2022-08-11T16:12:31;29.30;60.90
32600;DHT22;19277;51.778;7.912;2022-08-11T16:15:08;29.40;60.70
32600;DHT22;19277;51.778;7.912;2022-08-11T16:17:59;29.40;60.70
32600;DHT22;19277;51.778;7.912;2022-08-11T16:20:28;29.50;60.50
32600;DHT22;19277;51.778;7.912;2022-08-11T16:22:59;29.40;60.30
32600;DHT22;19277;51.778;7.912;2022-08-11T16:25:27;29.30;60.40
32600;DHT22;19277;51.778;7.912;2022-08-11T16:27:59;29.10;60.60
32600;DHT22;19277;51.778;7.912;2022-08-11T16:30:35;28.90;60.70
32600;DHT22;19277;51.778;7.912;2022-08-11T16:33:02;28.70;60.90
32600;DHT22;19277;51.778;7.912;2022-08-11T16:35:34;28.60;61.00
32600;DHT22;19277;51.778;7.912;2022-08-11T16:38:21;28.50;61.30
32600;DHT22;19277;51.778;7.912;2022-08-11T16:41:07;28.30;61.40
32600;DHT22;19277;51.778;7.912;2022-08-11T16:43:37;28.30;61.60
32600;DHT22;19277;51.778;7.912;2022-08-11T16:46:22;28.20;61.70
32600;DHT22;19277;51.778;7.912;2022-08-11T16:49:20;28.10;61.50
32600;DHT22;19277;51.778;7.912;2022-08-11T16:51:46;28.10;61.50
32600;DHT22;19277;51.778;7.912;2022-08-11T16:54:12;28.00;61.40
32600;DHT22;19277;51.778;7.912;2022-08-11T16:56:48;28.00;61.60
32600;DHT22;19277;51.778;7.912;2022-08-11T16:59:28;28.00;61.60
32600;DHT22;19277;51.778;7.912;2022-08-11T17:02:01;27.90;61.60
32600;DHT22;19277;51.778;7.912;2022-08-11T17:04:45;27.90;61.60
32600;DHT22;19277;51.778;7.912;2022-08-11T17:07:31;27.90;61.80
32600;DHT22;19277;51.778;7.912;2022-08-11T17:10:26;27.90;61.80
32600;DHT22;19277;51.778;7.912;2022-08-11T17:13:13;27.90;61.60
32600;DHT22;19277;51.778;7.912;2022-08-11T17:15:50;27.90;61.60
32600;DHT22;19277;51.778;7.912;2022-08-11T17:21:25;27.90;61.40
32600;DHT22;19277;51.778;7.912;2022-08-11T17:23:54;27.90;61.40
32600;DHT22;19277;51.778;7.912;2022-08-11T17:26:23;27.90;61.30
32600;DHT22;19277;51.778;7.912;2022-08-11T17:28:53;27.90;61.40
32600;DHT22;19277;51.778;7.912;2022-08-11T17:31:22;27.90;61.40
32600;DHT22;19277;51.778;7.912;2022-08-11T17:34:07;27.90;61.40
32600;DHT22;19277;51.778;7.912;2022-08-11T17:36:55;27.90;61.60
32600;DHT22;19277;51.778;7.912;2022-08-11T17:39:28;27.90;61.30
32600;DHT22;19277;51.778;7.912;2022-08-11T17:41:55;27.90;61.40
32600;DHT22;19277;51.778;7.912;2022-08-11T17:44:41;27.90;61.40
32600;DHT22;19277;51.778;7.912;2022-08-11T17:47:27;27.90;61.40
32600;DHT22;19277;51.778;7.912;2022-08-11T17:50:12;27.90;61.40
32600;DHT22;19277;51.778;7.912;2022-08-11T17:52:40;27.90;61.20
32600;DHT22;19277;51.778;7.912;2022-08-11T17:55:26;27.90;61.30
32600;DHT22;19277;51.778;7.912;2022-08-11T17:58:23;27.90;61.40
32600;DHT22;19277;51.778;7.912;2022-08-11T18:01:09;27.90;61.40
32600;DHT22;19277;51.778;7.912;2022-08-11T18:03:35;27.90;61.40
32600;DHT22;19277;51.778;7.912;2022-08-11T18:06:06;27.90;61.40
32600;DHT22;19277;51.778;7.912;2022-08-11T18:08:33;27.90;61.30
32600;DHT22;19277;51.778;7.912;2022-08-11T18:11:21;27.90;61.50
32600;DHT22;19277;51.778;7.912;2022-08-11T18:14:09;27.90;61.30
32600;DHT22;19277;51.778;7.912;2022-08-11T18:16:54;27.90;61.30
32600;DHT22;19277;51.778;7.912;2022-08-11T18:19:38;27.90;61.30
32600;DHT22;19277;51.778;7.912;2022-08-11T18:22:27;27.90;61.20
32600;DHT22;19277;51.778;7.912;2022-08-11T18:25:14;27.90;61.20
32600;DHT22;19277;51.778;7.912;2022-08-11T18:28:00;27.90;61.20
32600;DHT22;19277;51.778;7.912;2022-08-11T18:30:47;27.90;61.30
32600;DHT22;19277;51.778;7.912;2022-08-11T18:33:53;27.90;61.20
32600;DHT22;19277;51.778;7.912;2022-08-11T18:36:41;27.90;61.30
32600;DHT22;19277;51.778;7.912;2022-08-11T18:39:31;27.90;61.40
32600;DHT22;19277;51.778;7.912;2022-08-11T18:42:17;27.90;61.40
32600;DHT22;19277;51.778;7.912;2022-08-11T18:45:10;27.90;61.50
32600;DHT22;19277;51.778;7.912;2022-08-11T18:48:00;27.90;61.50
32600;DHT22;19277;51.778;7.912;2022-08-11T18:50:46;27.90;61.60
32600;DHT22;19277;51.778;7.912;2022-08-11T18:53:33;27.90;61.60
32600;DHT22;19277;51.778;7.912;2022-08-11T18:56:18;27.90;61.60
32600;DHT22;19277;51.778;7.912;2022-08-11T18:59:03;28.00;61.70
32600;DHT22;19277;51.778;7.912;2022-08-11T19:01:50;27.90;61.70
32600;DHT22;19277;51.778;7.912;2022-08-11T19:04:37;27.90;61.70
32600;DHT22;19277;51.778;7.912;2022-08-11T19:07:22;27.90;61.70
32600;DHT22;19277;51.778;7.912;2022-08-11T19:10:08;27.90;61.80
32600;DHT22;19277;51.778;7.912;2022-08-11T19:12:53;28.00;61.80
32600;DHT22;19277;51.778;7.912;2022-08-11T19:15:39;28.00;61.90
32600;DHT22;19277;51.778;7.912;2022-08-11T19:18:25;28.00;61.90
32600;DHT22;19277;51.778;7.912;2022-08-11T19:21:12;28.00;61.90
32600;DHT22;19277;51.778;7.912;2022-08-11T19:24:02;28.00;61.90
32600;DHT22;19277;51.778;7.912;2022-08-11T19:26:47;28.00;61.80
32600;DHT22;19277;51.778;7.912;2022-08-11T19:29:34;28.00;61.90
32600;DHT22;19277;51.778;7.912;2022-08-11T19:32:19;28.00;61.90
32600;DHT22;19277;51.778;7.912;2022-08-11T19:35:05;28.00;61.90
32600;DHT22;19277;51.778;7.912;2022-08-11T19:37:50;28.00;61.90
32600;DHT22;19277;51.778;7.912;2022-08-11T19:40:36;28.00;61.90
32600;DHT22;19277;51.778;7.912;2022-08-11T19:43:22;28.00;61.90
32600;DHT22;19277;51.778;7.912;2022-08-11T19:46:08;28.00;61.90
32600;DHT22;19277;51.778;7.912;2022-08-11T19:48:54;28.00;61.90
32600;DHT22;19277;51.778;7.912;2022-08-11T19:51:39;28.00;61.90
32600;DHT22;19277;51.778;7.912;2022-08-11T19:54:26;28.00;61.90
32600;DHT22;19277;51.778;7.912;2022-08-11T19:57:11;28.00;61.90
32600;DHT22;19277;51.778;7.912;2022-08-11T19:59:56;28.00;61.80
32600;DHT22;19277;51.778;7.912;2022-08-11T20:02:41;28.00;61.80
32600;DHT22;19277;51.778;7.912;2022-08-11T20:05:26;28.00;61.80
32600;DHT22;19277;51.778;7.912;2022-08-11T20:08:11;28.00;61.80
32600;DHT22;19277;51.778;7.912;2022-08-11T20:10:57;28.00;61.80
32600;DHT22;19277;51.778;7.912;2022-08-11T20:13:42;28.00;61.70
32600;DHT22;19277;51.778;7.912;2022-08-11T20:16:26;28.00;61.70
32600;DHT22;19277;51.778;7.912;2022-08-11T20:19:12;28.00;61.70